sensor_id;sensor_type;location;lat;lon;timestamp;temperature;humidity
22177;DHT22;11254;50.098;8.726;2022-08-19T00:01:43;21.60;99.90
22177;DHT22;11254;50.098;8.726;2022-08-19T00:04:20;21.60;99.90
22177;DHT22;11254;50.098;8.726;2022-08-19T00:06:48;21.60;99.90
22177;DHT22;11254;50.098;8.726;2022-08-19T00:09:18;21.60;99.90
22177;DHT22;11254;50.098;8.726;2022-08-19T00:11:46;21.60;99.90
22177;DHT22;11254;50.098;8.726;2022-08-19T00:14:16;21.60;99.90
22177;DHT22;11254;50.098;8.726;2022-08-19T00:16:46;21.60;99.90
22177;DHT22;11254;50.098;8.726;2022-08-19T00:19:15;21.60;99.90
22177;DHT22;11254;50.098;8.726;2022-08-19T00:21:43;21.50;99.90
22177;DHT22;11254;50.098;8.726;2022-08-19T00:24:13;21.50;99.90
22177;DHT22;11254;50.098;8.726;2022-08-19T00:26:42;21.60;99.90
22177;DHT22;11254;50.098;8.726;2022-08-19T00:29:11;21.50;99.90
22177;DHT22;11254;50.098;8.726;2022-08-19T00:31:40;21.50;99.90
22177;DHT22;11254;50.098;8.726;2022-08-19T00:34:10;21.50;99.90
22177;DHT22;11254;50.098;8.726;2022-08-19T00:36:38;21.50;99.90
22177;DHT22;11254;50.098;8.726;2022-08-19T00:39:07;21.50;99.90
22177;DHT22;11254;50.098;8.726;2022-08-19T00:41:35;21.50;99.90
22177;DHT22;11254;50.098;8.726;2022-08-19T00:44:06;21.50;99.90
22177;DHT22;11254;50.098;8.726;2022-08-19T00:46:36;21.50;99.90
22177;DHT22;11254;50.098;8.726;2022-08-19T00:49:11;21.50;99.90
22177;DHT22;11254;50.098;8.726;2022-08-19T00:51:42;21.40;99.90
22177;DHT22;11254;50.098;8.726;2022-08-19T00:54:11;21.40;99.90
22177;DHT22;11254;50.098;8.726;2022-08-19T00:56:40;21.40;99.90
22177;DHT22;11254;50.098;8.726;2022-08-19T00:59:09;21.40;99.90
22177;DHT22;11254;50.098;8.726;2022-08-19T01:01:38;21.40;99.90
22177;DHT22;11254;50.098;8.726;2022-08-19T01:04:07;21.50;99.90
22177;DHT22;11254;50.098;8.726;2022-08-19T01:06:38;21.50;99.90
22177;DHT22;11254;50.098;8.726;2022-08-19T01:09:08;21.50;99.90
22177;DHT22;11254;50.098;8.726;2022-08-19T01:11:39;21.50;99.90
22177;DHT22;11254;50.098;8.726;2022-08-19T01:14:09;21.50;99.90
22177;DHT22;11254;50.098;8.726;2022-08-19T01:16:40;21.50;99.90
22177;DHT22;11254;50.098;8.726;2022-08-19T01:19:15;21.50;99.90
22177;DHT22;11254;50.098;8.726;2022-08-19T01:21:52;21.50;99.90
22177;DHT22;11254;50.098;8.726;2022-08-19T01:24:22;21.50;99.90
22177;DHT22;11254;50.098;8.726;2022-08-19T01:26:50;21.40;99.90
22177;DHT22;11254;50.098;8.726;2022-08-19T01:29:19;21.40;99.90
22177;DHT22;11254;50.098;8.726;2022-08-19T01:31:49;21.40;99.90
22177;DHT22;11254;50.098;8.726;2022-08-19T01:34:19;21.40;99.90
22177;DHT22;11254;50.098;8.726;2022-08-19T01:36:47;21.40;99.90
22177;DHT22;11254;50.098;8.726;2022-08-19T01:39:19;21.40;99.90
22177;DHT22;11254;50.098;8.726;2022-08-19T01:41:49;21.40;99.90
22177;DHT22;11254;50.098;8.726;2022-08-19T01:44:19;21.40;99.90
22177;DHT22;11254;50.098;8.726;2022-08-19T01:46:51;21.40;99.90
22177;DHT22;11254;50.098;8.726;2022-08-19T01:49:21;21.40;99.90
22177;DHT22;11254;50.098;8.726;2022-08-19T01:51:50;21.30;99.90
22177;DHT22;11254;50.098;8.726;2022-08-19T01:54:21;21.30;99.90
22177;DHT22;11254;50.098;8.726;2022-08-19T01:56:59;21.30;99.90
22177;DHT22;11254;50.098;8.726;2022-08-19T01:59:33;21.30;99.90
22177;DHT22;11254;50.098;8.726;2022-08-19T02:02:04;21.30;99.90
22177;DHT22;11254;50.098;8.726;2022-08-19T02:04:35;21.30;99.90
22177;DHT22;11254;50.098;8.726;2022-08-19T02:07:04;21.30;99.90
22177;DHT22;11254;50.098;8.726;2022-08-19T02:09:32;21.30;99.90
22177;DHT22;11254;50.098;8.726;2022-08-19T02:12:02;21.30;99.90
22177;DHT22;11254;50.098;8.726;2022-08-19T02:14:31;21.30;99.90
22177;DHT22;11254;50.098;8.726;2022-08-19T02:17:01;21.30;99.90
22177;DHT22;11254;50.098;8.726;2022-08-19T02:19:29;21.30;99.90
22177;DHT22;11254;50.098;8.726;2022-08-19T02:21:59;21.30;99.90
22177;DHT22;11254;50.098;8.726;2022-08-19T02:24:27;21.20;99.90
22177;DHT22;11254;50.098;8.726;2022-08-19T02:26:55;21.10;99.90
22177;DHT22;11254;50.098;8.726;2022-08-19T02:29:26;21.10;99.90
22177;DHT22;11254;50.098;8.726;2022-08-19T02:31:55;21.10;99.90
22177;DHT22;11254;50.098;8.726;2022-08-19T02:34:23;21.10;99.90
22177;DHT22;11254;50.098;8.726;2022-08-19T02:36:51;21.10;99.90
22177;DHT22;11254;50.098;8.726;2022-08-19T02:39:19;21.10;99.90
22177;DHT22;11254;50.098;8.726;2022-08-19T02:41:46;21.10;99.90
22177;DHT22;11254;50.098;8.726;2022-08-19T02:44:16;21.10;99.90
22177;DHT22;11254;50.098;8.726;2022-08-19T02:46:58;21.20;99.90
22177;DHT22;11254;50.098;8.726;2022-08-19T02:49:26;21.20;99.90
22177;DHT22;11254;50.098;8.726;2022-08-19T02:51:54;21.20;99.90
22177;DHT22;11254;50.098;8.726;2022-08-19T02:54:22;21.20;99.90
22177;DHT22;11254;50.098;8.726;2022-08-19T02:56:50;21.20;99.90
22177;DHT22;11254;50.098;8.726;2022-08-19T02:59:18;21.20;99.90
22177;DHT22;11254;50.098;8.726;2022-08-19T03:01:49;21.20;99.90
22177;DHT22;11254;50.098;8.726;2022-08-19T03:04:18;21.10;99.90
22177;DHT22;11254;50.098;8.726;2022-08-19T03:06:47;21.10;99.90
22177;DHT22;11254;50.098;8.726;2022-08-19T03:09:16;21.10;99.90
22177;DHT22;11254;50.098;8.726;2022-08-19T03:11:44;21.20;99.90
22177;DHT22;11254;50.098;8.726;2022-08-19T03:14:14;21.20;99.90
22177;DHT22;11254;50.098;8.726;2022-08-19T03:16:44;21.20;99.90
22177;DHT22;11254;50.098;8.726;2022-08-19T03:19:13;21.30;99.90
22177;DHT22;11254;50.098;8.726;2022-08-19T03:21:45;21.20;99.90
22177;DHT22;11254;50.098;8.726;2022-08-19T03:24:14;21.10;99.90
22177;DHT22;11254;50.098;8.726;2022-08-19T03:26:44;21.00;99.90
22177;DHT22;11254;50.098;8.726;2022-08-19T03:29:13;21.00;99.90
22177;DHT22;11254;50.098;8.726;2022-08-19T03:31:56;20.90;99.90
22177;DHT22;11254;50.098;8.726;2022-08-19T03:34:26;20.90;99.90
22177;DHT22;11254;50.098;8.726;2022-08-19T03:36:58;20.90;99.90
22177;DHT22;11254;50.098;8.726;2022-08-19T03:39:27;20.90;99.90
22177;DHT22;11254;50.098;8.726;2022-08-19T03:41:55;21.00;99.90
22177;DHT22;11254;50.098;8.726;2022-08-19T03:44:49;21.00;99.90
22177;DHT22;11254;50.098;8.726;2022-08-19T03:47:17;21.10;99.90
22177;DHT22;11254;50.098;8.726;2022-08-19T03:49:45;21.10;99.90
22177;DHT22;11254;50.098;8.726;2022-08-19T03:52:14;21.10;99.90
22177;DHT22;11254;50.098;8.726;2022-08-19T03:54:42;21.10;99.90
22177;DHT22;11254;50.098;8.726;2022-08-19T03:57:11;21.00;99.90
22177;DHT22;11254;50.098;8.726;2022-08-19T03:59:39;21.00;99.90
22177;DHT22;11254;50.098;8.726;2022-08-19T04:02:10;21.00;99.90
22177;DHT22;11254;50.098;8.726;2022-08-19T04:04:40;21.00;99.90
22177;DHT22;11254;50.098;8.726;2022-08-19T04:07:11;20.90;99.90
22177;DHT22;11254;50.098;8.726;2022-08-19T04:09:43;21.00;99.90
22177;DHT22;11254;50.098;8.726;2022-08-19T04:12:11;21.00;99.90
22177;DHT22;11254;50.098;8.726;2022-08-19T04:14:39;20.90;99.90
22177;DHT22;11254;50.098;8.726;2022-08-19T04:17:08;20.90;99.90
22177;DHT22;11254;50.098;8.726;2022-08-19T04:19:36;20.90;99.90
22177;DHT22;11254;50.098;8.726;2022-08-19T04:22:05;20.90;99.90
22177;DHT22;11254;50.098;8.726;2022-08-19T04:24:34;20.90;99.90
22177;DHT22;11254;50.098;8.726;2022-08-19T04:27:04;21.00;99.90
22177;DHT22;11254;50.098;8.726;2022-08-19T04:29:33;21.00;99.90
22177;DHT22;11254;50.098;8.726;2022-08-19T04:32:02;21.00;99.90
22177;DHT22;11254;50.098;8.726;2022-08-19T04:34:36;21.00;99.90
22177;DHT22;11254;50.098;8.726;2022-08-19T04:37:24;21.00;99.90
22177;DHT22;11254;50.098;8.726;2022-08-19T04:40:00;21.00;99.90
22177;DHT22;11254;50.098;8.726;2022-08-19T04:42:47;21.00;99.90
22177;DHT22;11254;50.098;8.726;2022-08-19T04:45:15;21.00;99.90
22177;DHT22;11254;50.098;8.726;2022-08-19T04:47:44;20.90;99.90
22177;DHT22;11254;50.098;8.726;2022-08-19T04:50:24;20.90;99.90
22177;DHT22;11254;50.098;8.726;2022-08-19T04:52:52;20.90;99.90
22177;DHT22;11254;50.098;8.726;2022-08-19T04:55:20;20.90;99.90
22177;DHT22;11254;50.098;8.726;2022-08-19T04:57:49;20.90;99.90
22177;DHT22;11254;50.098;8.726;2022-08-19T05:00:18;20.90;99.90
22177;DHT22;11254;50.098;8.726;2022-08-19T05:02:46;21.00;99.90
22177;DHT22;11254;50.098;8.726;2022-08-19T05:05:16;21.10;99.90
22177;DHT22;11254;50.098;8.726;2022-08-19T05:07:44;21.00;99.90
22177;DHT22;11254;50.098;8.726;2022-08-19T05:10:13;21.10;99.90
22177;DHT22;11254;50.098;8.726;2022-08-19T05:12:41;21.10;99.90
22177;DHT22;11254;50.098;8.726;2022-08-19T05:15:10;21.10;99.90
22177;DHT22;11254;50.098;8.726;2022-08-19T05:17:38;21.10;99.90
22177;DHT22;11254;50.098;8.726;2022-08-19T05:20:27;21.20;99.90
22177;DHT22;11254;50.098;8.726;2022-08-19T05:23:13;21.30;99.90
22177;DHT22;11254;50.098;8.726;2022-08-19T05:25:48;21.40;99.90
22177;DHT22;11254;50.098;8.726;2022-08-19T05:28:16;21.40;99.90
22177;DHT22;11254;50.098;8.726;2022-08-19T05:30:46;21.50;99.90
22177;DHT22;11254;50.098;8.726;2022-08-19T05:33:14;21.50;99.90
22177;DHT22;11254;50.098;8.726;2022-08-19T05:35:42;21.50;99.90
22177;DHT22;11254;50.098;8.726;2022-08-19T05:38:10;21.70;99.90
22177;DHT22;11254;50.098;8.726;2022-08-19T05:40:39;21.70;99.90
22177;DHT22;11254;50.098;8.726;2022-08-19T05:43:08;21.70;99.90
22177;DHT22;11254;50.098;8.726;2022-08-19T05:45:39;21.80;99.90
22177;DHT22;11254;50.098;8.726;2022-08-19T05:48:09;21.70;99.90
22177;DHT22;11254;50.098;8.726;2022-08-19T05:50:38;21.70;99.90
22177;DHT22;11254;50.098;8.726;2022-08-19T05:53:07;21.70;99.90
22177;DHT22;11254;50.098;8.726;2022-08-19T05:55:36;21.80;99.90
22177;DHT22;11254;50.098;8.726;2022-08-19T05:58:04;21.80;99.90
22177;DHT22;11254;50.098;8.726;2022-08-19T06:00:34;21.80;99.90
22177;DHT22;11254;50.098;8.726;2022-08-19T06:03:02;21.90;99.90
22177;DHT22;11254;50.098;8.726;2022-08-19T06:05:41;22.00;99.90
22177;DHT22;11254;50.098;8.726;2022-08-19T06:08:19;22.00;99.90
22177;DHT22;11254;50.098;8.726;2022-08-19T06:11:13;22.10;99.90
22177;DHT22;11254;50.098;8.726;2022-08-19T06:13:42;22.20;99.90
22177;DHT22;11254;50.098;8.726;2022-08-19T06:16:11;22.30;99.90
22177;DHT22;11254;50.098;8.726;2022-08-19T06:18:40;22.40;99.90
22177;DHT22;11254;50.098;8.726;2022-08-19T06:21:11;22.50;99.90
22177;DHT22;11254;50.098;8.726;2022-08-19T06:23:39;22.50;99.90
22177;DHT22;11254;50.098;8.726;2022-08-19T06:26:11;22.60;99.90
22177;DHT22;11254;50.098;8.726;2022-08-19T06:28:39;22.80;99.90
22177;DHT22;11254;50.098;8.726;2022-08-19T06:31:09;23.00;99.90
22177;DHT22;11254;50.098;8.726;2022-08-19T06:33:38;23.20;99.90
22177;DHT22;11254;50.098;8.726;2022-08-19T06:36:07;23.20;99.90
22177;DHT22;11254;50.098;8.726;2022-08-19T06:38:37;23.30;99.90
22177;DHT22;11254;50.098;8.726;2022-08-19T06:41:05;23.40;99.90
22177;DHT22;11254;50.098;8.726;2022-08-19T06:43:34;23.50;99.90
22177;DHT22;11254;50.098;8.726;2022-08-19T06:46:11;23.50;99.90
22177;DHT22;11254;50.098;8.726;2022-08-19T06:48:41;23.70;99.90
22177;DHT22;11254;50.098;8.726;2022-08-19T06:51:12;23.90;99.30
22177;DHT22;11254;50.098;8.726;2022-08-19T06:53:47;24.10;98.60
22177;DHT22;11254;50.098;8.726;2022-08-19T06:56:23;24.20;98.00
22177;DHT22;11254;50.098;8.726;2022-08-19T06:58:52;24.30;97.80
22177;DHT22;11254;50.098;8.726;2022-08-19T07:01:21;24.50;97.50
22177;DHT22;11254;50.098;8.726;2022-08-19T07:03:49;24.60;96.70
22177;DHT22;11254;50.098;8.726;2022-08-19T07:06:18;24.60;96.80
22177;DHT22;11254;50.098;8.726;2022-08-19T07:09:09;24.70;96.30
22177;DHT22;11254;50.098;8.726;2022-08-19T07:11:38;24.90;95.60
22177;DHT22;11254;50.098;8.726;2022-08-19T07:14:09;25.00;95.70
22177;DHT22;11254;50.098;8.726;2022-08-19T07:16:47;25.40;94.50
22177;DHT22;11254;50.098;8.726;2022-08-19T07:19:17;26.00;93.00
22177;DHT22;11254;50.098;8.726;2022-08-19T07:21:46;26.80;90.60
22177;DHT22;11254;50.098;8.726;2022-08-19T07:24:16;27.70;86.60
22177;DHT22;11254;50.098;8.726;2022-08-19T07:26:44;28.40;82.40
22177;DHT22;11254;50.098;8.726;2022-08-19T07:29:18;29.20;77.50
22177;DHT22;11254;50.098;8.726;2022-08-19T07:31:52;29.60;74.10
22177;DHT22;11254;50.098;8.726;2022-08-19T07:34:23;29.30;72.90
22177;DHT22;11254;50.098;8.726;2022-08-19T07:36:52;29.70;72.10
22177;DHT22;11254;50.098;8.726;2022-08-19T07:39:24;29.50;71.20
22177;DHT22;11254;50.098;8.726;2022-08-19T07:41:53;29.00;72.00
22177;DHT22;11254;50.098;8.726;2022-08-19T07:44:22;28.30;74.90
22177;DHT22;11254;50.098;8.726;2022-08-19T07:46:53;27.80;76.80
22177;DHT22;11254;50.098;8.726;2022-08-19T07:49:22;27.70;77.30
22177;DHT22;11254;50.098;8.726;2022-08-19T07:51:53;27.70;77.40
22177;DHT22;11254;50.098;8.726;2022-08-19T07:54:26;27.70;77.00
22177;DHT22;11254;50.098;8.726;2022-08-19T07:56:55;28.00;76.40
22177;DHT22;11254;50.098;8.726;2022-08-19T07:59:24;28.50;74.60
22177;DHT22;11254;50.098;8.726;2022-08-19T08:01:52;29.20;72.40
22177;DHT22;11254;50.098;8.726;2022-08-19T08:04:20;29.90;68.70
22177;DHT22;11254;50.098;8.726;2022-08-19T08:07:04;31.10;63.90
22177;DHT22;11254;50.098;8.726;2022-08-19T08:09:47;32.20;59.80
22177;DHT22;11254;50.098;8.726;2022-08-19T08:12:19;32.90;56.80
22177;DHT22;11254;50.098;8.726;2022-08-19T08:15:06;33.60;55.00
22177;DHT22;11254;50.098;8.726;2022-08-19T08:17:39;33.50;54.30
22177;DHT22;11254;50.098;8.726;2022-08-19T08:20:18;34.10;53.60
22177;DHT22;11254;50.098;8.726;2022-08-19T08:22:47;34.90;51.90
22177;DHT22;11254;50.098;8.726;2022-08-19T08:25:35;35.70;49.60
22177;DHT22;11254;50.098;8.726;2022-08-19T08:28:05;35.60;48.60
22177;DHT22;11254;50.098;8.726;2022-08-19T08:30:37;34.50;49.30
22177;DHT22;11254;50.098;8.726;2022-08-19T08:33:11;33.50;51.70
22177;DHT22;11254;50.098;8.726;2022-08-19T08:35:40;32.10;54.00
22177;DHT22;11254;50.098;8.726;2022-08-19T08:38:09;31.80;55.80
22177;DHT22;11254;50.098;8.726;2022-08-19T08:40:43;32.50;54.20
22177;DHT22;11254;50.098;8.726;2022-08-19T08:43:22;33.50;52.80
22177;DHT22;11254;50.098;8.726;2022-08-19T08:46:01;34.40;50.00
22177;DHT22;11254;50.098;8.726;2022-08-19T08:48:36;34.40;49.70
22177;DHT22;11254;50.098;8.726;2022-08-19T08:51:11;33.90;50.00
22177;DHT22;11254;50.098;8.726;2022-08-19T08:53:48;32.90;51.00
22177;DHT22;11254;50.098;8.726;2022-08-19T08:56:23;32.40;52.80
22177;DHT22;11254;50.098;8.726;2022-08-19T08:58:57;31.50;53.60
22177;DHT22;11254;50.098;8.726;2022-08-19T09:01:26;30.70;55.00
22177;DHT22;11254;50.098;8.726;2022-08-19T09:03:56;30.00;57.20
22177;DHT22;11254;50.098;8.726;2022-08-19T09:06:35;29.40;58.40
22177;DHT22;11254;50.098;8.726;2022-08-19T09:09:14;28.90;61.40
22177;DHT22;11254;50.098;8.726;2022-08-19T09:11:54;29.00;60.40
22177;DHT22;11254;50.098;8.726;2022-08-19T09:14:37;29.50;58.80
22177;DHT22;11254;50.098;8.726;2022-08-19T09:17:19;30.30;57.60
22177;DHT22;11254;50.098;8.726;2022-08-19T09:19:52;31.60;55.30
22177;DHT22;11254;50.098;8.726;2022-08-19T09:22:22;32.70;53.10
22177;DHT22;11254;50.098;8.726;2022-08-19T09:24:54;32.90;52.20
22177;DHT22;11254;50.098;8.726;2022-08-19T09:27:24;33.50;50.50
22177;DHT22;11254;50.098;8.726;2022-08-19T09:30:13;33.60;50.90
22177;DHT22;11254;50.098;8.726;2022-08-19T09:32:42;34.00;49.30
22177;DHT22;11254;50.098;8.726;2022-08-19T09:35:11;33.60;49.70
22177;DHT22;11254;50.098;8.726;2022-08-19T09:37:41;33.50;49.90
22177;DHT22;11254;50.098;8.726;2022-08-19T09:40:10;32.70;50.70
22177;DHT22;11254;50.098;8.726;2022-08-19T09:42:40;31.70;52.70
22177;DHT22;11254;50.098;8.726;2022-08-19T09:45:21;30.90;54.60
22177;DHT22;11254;50.098;8.726;2022-08-19T09:47:50;30.70;55.20
22177;DHT22;11254;50.098;8.726;2022-08-19T09:50:21;30.70;54.90
22177;DHT22;11254;50.098;8.726;2022-08-19T09:52:50;30.40;55.70
22177;DHT22;11254;50.098;8.726;2022-08-19T09:55:25;30.20;56.70
22177;DHT22;11254;50.098;8.726;2022-08-19T09:58:03;30.20;57.50
22177;DHT22;11254;50.098;8.726;2022-08-19T10:00:32;30.20;57.50
22177;DHT22;11254;50.098;8.726;2022-08-19T10:03:00;29.80;57.50
22177;DHT22;11254;50.098;8.726;2022-08-19T10:05:29;29.30;58.80
22177;DHT22;11254;50.098;8.726;2022-08-19T10:08:18;29.60;59.10
22177;DHT22;11254;50.098;8.726;2022-08-19T10:10:47;30.60;58.00
22177;DHT22;11254;50.098;8.726;2022-08-19T10:13:18;31.90;54.20
22177;DHT22;11254;50.098;8.726;2022-08-19T10:15:48;32.70;52.30
22177;DHT22;11254;50.098;8.726;2022-08-19T10:18:19;33.60;51.10
22177;DHT22;11254;50.098;8.726;2022-08-19T10:20:48;33.70;49.70
22177;DHT22;11254;50.098;8.726;2022-08-19T10:23:19;32.80;51.10
22177;DHT22;11254;50.098;8.726;2022-08-19T10:25:47;32.20;52.30
22177;DHT22;11254;50.098;8.726;2022-08-19T10:28:17;31.60;53.20
22177;DHT22;11254;50.098;8.726;2022-08-19T10:30:46;30.90;54.50
22177;DHT22;11254;50.098;8.726;2022-08-19T10:33:14;30.70;55.50
22177;DHT22;11254;50.098;8.726;2022-08-19T10:36:04;31.00;55.70
22177;DHT22;11254;50.098;8.726;2022-08-19T10:38:33;31.60;54.70
22177;DHT22;11254;50.098;8.726;2022-08-19T10:41:09;31.90;54.00
22177;DHT22;11254;50.098;8.726;2022-08-19T10:43:39;31.90;53.40
22177;DHT22;11254;50.098;8.726;2022-08-19T10:46:08;31.40;53.50
22177;DHT22;11254;50.098;8.726;2022-08-19T10:48:43;31.40;53.40
22177;DHT22;11254;50.098;8.726;2022-08-19T10:51:12;31.40;52.50
22177;DHT22;11254;50.098;8.726;2022-08-19T10:53:57;31.40;53.00
22177;DHT22;11254;50.098;8.726;2022-08-19T10:56:27;31.60;53.30
22177;DHT22;11254;50.098;8.726;2022-08-19T10:59:16;31.40;53.20
22177;DHT22;11254;50.098;8.726;2022-08-19T11:01:45;30.80;53.70
22177;DHT22;11254;50.098;8.726;2022-08-19T11:04:17;30.30;54.90
22177;DHT22;11254;50.098;8.726;2022-08-19T11:06:47;30.00;56.10
22177;DHT22;11254;50.098;8.726;2022-08-19T11:09:17;29.80;56.40
22177;DHT22;11254;50.098;8.726;2022-08-19T11:11:46;29.90;57.00
22177;DHT22;11254;50.098;8.726;2022-08-19T11:14:17;29.90;56.40
22177;DHT22;11254;50.098;8.726;2022-08-19T11:16:47;30.00;55.90
22177;DHT22;11254;50.098;8.726;2022-08-19T11:19:16;30.20;54.50
22177;DHT22;11254;50.098;8.726;2022-08-19T11:21:47;30.50;55.10
22177;DHT22;11254;50.098;8.726;2022-08-19T11:24:17;30.40;55.40
22177;DHT22;11254;50.098;8.726;2022-08-19T11:26:48;30.20;55.30
22177;DHT22;11254;50.098;8.726;2022-08-19T11:29:19;29.60;55.50
22177;DHT22;11254;50.098;8.726;2022-08-19T11:31:49;29.30;55.10
22177;DHT22;11254;50.098;8.726;2022-08-19T11:34:19;29.20;54.10
22177;DHT22;11254;50.098;8.726;2022-08-19T11:36:48;29.20;54.50
22177;DHT22;11254;50.098;8.726;2022-08-19T11:39:19;29.00;55.30
22177;DHT22;11254;50.098;8.726;2022-08-19T11:41:47;29.10;56.10
22177;DHT22;11254;50.098;8.726;2022-08-19T11:44:17;29.50;56.50
22177;DHT22;11254;50.098;8.726;2022-08-19T11:46:46;29.80;55.80
22177;DHT22;11254;50.098;8.726;2022-08-19T11:49:15;30.10;54.90
22177;DHT22;11254;50.098;8.726;2022-08-19T11:51:43;30.00;54.80
22177;DHT22;11254;50.098;8.726;2022-08-19T11:54:12;29.90;55.30
22177;DHT22;11254;50.098;8.726;2022-08-19T11:56:41;29.90;55.40
22177;DHT22;11254;50.098;8.726;2022-08-19T11:59:10;29.90;54.30
22177;DHT22;11254;50.098;8.726;2022-08-19T12:01:42;29.80;54.10
22177;DHT22;11254;50.098;8.726;2022-08-19T12:04:10;29.70;53.70
22177;DHT22;11254;50.098;8.726;2022-08-19T12:06:40;29.70;54.20
22177;DHT22;11254;50.098;8.726;2022-08-19T12:09:09;29.90;54.80
22177;DHT22;11254;50.098;8.726;2022-08-19T12:11:39;30.20;53.50
22177;DHT22;11254;50.098;8.726;2022-08-19T12:14:10;30.00;54.00
22177;DHT22;11254;50.098;8.726;2022-08-19T12:16:44;30.00;54.40
22177;DHT22;11254;50.098;8.726;2022-08-19T12:19:18;29.60;54.50
22177;DHT22;11254;50.098;8.726;2022-08-19T12:21:49;29.40;54.90
22177;DHT22;11254;50.098;8.726;2022-08-19T12:24:17;29.10;54.40
22177;DHT22;11254;50.098;8.726;2022-08-19T12:26:49;29.00;53.70
22177;DHT22;11254;50.098;8.726;2022-08-19T12:29:20;28.90;54.30
22177;DHT22;11254;50.098;8.726;2022-08-19T12:31:51;29.10;54.60
22177;DHT22;11254;50.098;8.726;2022-08-19T12:34:19;29.40;54.00
22177;DHT22;11254;50.098;8.726;2022-08-19T12:36:48;29.70;52.80
22177;DHT22;11254;50.098;8.726;2022-08-19T12:39:16;30.00;52.40
22177;DHT22;11254;50.098;8.726;2022-08-19T12:41:44;30.20;52.20
22177;DHT22;11254;50.098;8.726;2022-08-19T12:44:21;30.40;51.30
22177;DHT22;11254;50.098;8.726;2022-08-19T12:46:59;30.20;51.00
22177;DHT22;11254;50.098;8.726;2022-08-19T12:49:30;30.10;51.50
22177;DHT22;11254;50.098;8.726;2022-08-19T12:52:18;30.30;50.60
22177;DHT22;11254;50.098;8.726;2022-08-19T12:54:49;30.30;50.20
22177;DHT22;11254;50.098;8.726;2022-08-19T12:57:21;30.20;49.80
22177;DHT22;11254;50.098;8.726;2022-08-19T13:00:00;29.80;50.70
22177;DHT22;11254;50.098;8.726;2022-08-19T13:02:32;29.30;51.40
22177;DHT22;11254;50.098;8.726;2022-08-19T13:05:07;29.20;52.40
22177;DHT22;11254;50.098;8.726;2022-08-19T13:07:36;29.30;52.10
22177;DHT22;11254;50.098;8.726;2022-08-19T13:10:06;29.70;51.30
22177;DHT22;11254;50.098;8.726;2022-08-19T13:12:34;30.10;50.10
22177;DHT22;11254;50.098;8.726;2022-08-19T13:15:03;30.20;49.40
22177;DHT22;11254;50.098;8.726;2022-08-19T13:17:38;30.20;49.70
22177;DHT22;11254;50.098;8.726;2022-08-19T13:20:09;30.00;50.40
22177;DHT22;11254;50.098;8.726;2022-08-19T13:22:38;29.70;51.30
22177;DHT22;11254;50.098;8.726;2022-08-19T13:25:07;29.50;51.80
22177;DHT22;11254;50.098;8.726;2022-08-19T13:27:36;29.30;51.40
22177;DHT22;11254;50.098;8.726;2022-08-19T13:30:06;29.00;51.20
22177;DHT22;11254;50.098;8.726;2022-08-19T13:32:53;28.80;51.60
22177;DHT22;11254;50.098;8.726;2022-08-19T13:35:45;28.70;52.00
22177;DHT22;11254;50.098;8.726;2022-08-19T13:38:16;28.90;51.70
22177;DHT22;11254;50.098;8.726;2022-08-19T13:40:45;29.00;51.00
22177;DHT22;11254;50.098;8.726;2022-08-19T13:43:14;29.10;50.80
22177;DHT22;11254;50.098;8.726;2022-08-19T13:45:50;29.50;50.30
22177;DHT22;11254;50.098;8.726;2022-08-19T13:48:21;29.90;49.10
22177;DHT22;11254;50.098;8.726;2022-08-19T13:50:49;30.30;48.30
22177;DHT22;11254;50.098;8.726;2022-08-19T13:53:17;30.50;47.80
22177;DHT22;11254;50.098;8.726;2022-08-19T13:55:45;30.70;47.60
22177;DHT22;11254;50.098;8.726;2022-08-19T13:58:14;30.80;47.50
22177;DHT22;11254;50.098;8.726;2022-08-19T14:00:43;30.80;48.10
22177;DHT22;11254;50.098;8.726;2022-08-19T14:03:12;30.40;48.90
22177;DHT22;11254;50.098;8.726;2022-08-19T14:05:41;30.10;49.00
22177;DHT22;11254;50.098;8.726;2022-08-19T14:08:09;29.90;49.60
22177;DHT22;11254;50.098;8.726;2022-08-19T14:10:41;29.50;49.70
22177;DHT22;11254;50.098;8.726;2022-08-19T14:13:13;29.40;50.30
22177;DHT22;11254;50.098;8.726;2022-08-19T14:15:41;29.30;50.40
22177;DHT22;11254;50.098;8.726;2022-08-19T14:18:09;29.40;50.40
22177;DHT22;11254;50.098;8.726;2022-08-19T14:20:38;29.40;50.60
22177;DHT22;11254;50.098;8.726;2022-08-19T14:23:07;29.50;50.50
22177;DHT22;11254;50.098;8.726;2022-08-19T14:25:35;29.50;50.30
22177;DHT22;11254;50.098;8.726;2022-08-19T14:28:04;29.70;49.60
22177;DHT22;11254;50.098;8.726;2022-08-19T14:30:35;30.00;48.60
22177;DHT22;11254;50.098;8.726;2022-08-19T14:33:05;30.10;49.00
22177;DHT22;11254;50.098;8.726;2022-08-19T14:35:34;30.00;48.30
22177;DHT22;11254;50.098;8.726;2022-08-19T14:38:03;29.90;48.80
22177;DHT22;11254;50.098;8.726;2022-08-19T14:40:33;29.90;49.10
22177;DHT22;11254;50.098;8.726;2022-08-19T14:43:03;29.70;48.60
22177;DHT22;11254;50.098;8.726;2022-08-19T14:45:34;29.80;48.90
22177;DHT22;11254;50.098;8.726;2022-08-19T14:48:03;29.90;48.90
22177;DHT22;11254;50.098;8.726;2022-08-19T14:50:32;30.00;48.60
22177;DHT22;11254;50.098;8.726;2022-08-19T14:53:02;30.00;48.40
22177;DHT22;11254;50.098;8.726;2022-08-19T14:55:41;30.00;48.80
22177;DHT22;11254;50.098;8.726;2022-08-19T14:58:10;29.80;48.60
22177;DHT22;11254;50.098;8.726;2022-08-19T15:00:57;29.70;49.40
22177;DHT22;11254;50.098;8.726;2022-08-19T15:03:25;29.60;49.00
22177;DHT22;11254;50.098;8.726;2022-08-19T15:05:53;29.60;49.10
22177;DHT22;11254;50.098;8.726;2022-08-19T15:08:22;29.40;49.20
22177;DHT22;11254;50.098;8.726;2022-08-19T15:10:53;29.40;49.40
22177;DHT22;11254;50.098;8.726;2022-08-19T15:13:21;29.50;48.60
22177;DHT22;11254;50.098;8.726;2022-08-19T15:15:49;29.60;48.50
22177;DHT22;11254;50.098;8.726;2022-08-19T15:18:18;29.60;48.30
22177;DHT22;11254;50.098;8.726;2022-08-19T15:20:47;29.60;48.50
22177;DHT22;11254;50.098;8.726;2022-08-19T15:23:16;29.70;48.70
22177;DHT22;11254;50.098;8.726;2022-08-19T15:25:45;29.70;47.80
22177;DHT22;11254;50.098;8.726;2022-08-19T15:28:14;29.70;47.20
22177;DHT22;11254;50.098;8.726;2022-08-19T15:30:43;29.80;47.30
22177;DHT22;11254;50.098;8.726;2022-08-19T15:33:11;29.80;47.50
22177;DHT22;11254;50.098;8.726;2022-08-19T15:35:41;30.00;47.20
22177;DHT22;11254;50.098;8.726;2022-08-19T15:38:09;30.00;46.70
22177;DHT22;11254;50.098;8.726;2022-08-19T15:40:40;30.10;46.40
22177;DHT22;11254;50.098;8.726;2022-08-19T15:43:08;30.20;46.70
22177;DHT22;11254;50.098;8.726;2022-08-19T15:45:38;30.30;46.40
22177;DHT22;11254;50.098;8.726;2022-08-19T15:48:13;30.30;46.40
22177;DHT22;11254;50.098;8.726;2022-08-19T15:50:41;30.40;46.30
22177;DHT22;11254;50.098;8.726;2022-08-19T15:53:10;30.30;46.00
22177;DHT22;11254;50.098;8.726;2022-08-19T15:55:43;30.20;46.20